Terminal Aerodrome Forecast
Issued by NWS

Home | Current Version | Previous Version | Graphics & Text | Print | Product List | Glossary On
Versions: 1 2 3 4 5 6 7 8 9 10 11 12 13 14 15 16 17 18 19 20 21 22 23 24 25 26 27
000
FTUS43 KICT 250520
TAFSLN
TAF
KSLN 250520Z 2506/2606 15008KT P6SM SCT015 OVC070
      TEMPO 2506/2508 OVC015
     FM250800 15008KT 6SM BR VCTS OVC015CB
     FM251300 16008KT 4SM BR BKN007 OVC012
     FM251600 19010KT P6SM SCT025
     FM252100 18013G20KT P6SM VCTS SCT040CB=

USA.gov is the U.S. government's official web portal to all federal, state and local government web resources and services.